sensor_id;sensor_type;location;lat;lon;timestamp;pressure;altitude;pressure_sealevel;temperature;humidity
9439;BME280;5176;42.622;25.386;2023-03-29T00:00:09;97336.34;;;3.88;47.48
9439;BME280;5176;42.622;25.386;2023-03-29T00:02:42;97319.97;;;3.86;46.92
9439;BME280;5176;42.622;25.386;2023-03-29T00:05:15;97324.94;;;3.92;47.29
9439;BME280;5176;42.622;25.386;2023-03-29T00:07:44;97325.00;;;3.91;47.48
9439;BME280;5176;42.622;25.386;2023-03-29T00:10:13;97323.31;;;3.90;47.68
9439;BME280;5176;42.622;25.386;2023-03-29T00:12:42;97327.03;;;3.82;47.13
9439;BME280;5176;42.622;25.386;2023-03-29T00:15:11;97328.50;;;3.90;47.50
9439;BME280;5176;42.622;25.386;2023-03-29T00:17:42;97336.56;;;3.82;47.66
9439;BME280;5176;42.622;25.386;2023-03-29T00:20:11;97341.91;;;3.77;47.99
9439;BME280;5176;42.622;25.386;2023-03-29T00:22:40;97337.69;;;3.75;47.75
9439;BME280;5176;42.622;25.386;2023-03-29T00:25:10;97340.47;;;3.69;47.88
9439;BME280;5176;42.622;25.386;2023-03-29T00:27:39;97332.97;;;3.61;48.24
9439;BME280;5176;42.622;25.386;2023-03-29T00:30:09;97345.06;;;3.61;48.78
9439;BME280;5176;42.622;25.386;2023-03-29T00:32:37;97349.19;;;3.66;48.65
9439;BME280;5176;42.622;25.386;2023-03-29T00:35:09;97346.72;;;3.63;48.74
9439;BME280;5176;42.622;25.386;2023-03-29T00:37:38;97345.94;;;3.61;48.50
9439;BME280;5176;42.622;25.386;2023-03-29T00:40:10;97345.03;;;3.62;48.28
9439;BME280;5176;42.622;25.386;2023-03-29T00:42:43;97349.19;;;3.66;48.54
9439;BME280;5176;42.622;25.386;2023-03-29T00:45:19;97336.94;;;3.71;48.28
9439;BME280;5176;42.622;25.386;2023-03-29T00:47:50;97331.84;;;3.68;48.50
9439;BME280;5176;42.622;25.386;2023-03-29T00:50:26;97328.63;;;3.62;48.43
9439;BME280;5176;42.622;25.386;2023-03-29T00:53:02;97332.84;;;3.64;48.76
9439;BME280;5176;42.622;25.386;2023-03-29T00:55:35;97337.53;;;3.54;48.72
9439;BME280;5176;42.622;25.386;2023-03-29T00:58:06;97339.63;;;3.43;48.71
9439;BME280;5176;42.622;25.386;2023-03-29T01:00:43;97331.84;;;3.43;49.10
9439;BME280;5176;42.622;25.386;2023-03-29T01:03:15;97333.03;;;3.33;48.88
9439;BME280;5176;42.622;25.386;2023-03-29T01:05:56;97340.16;;;3.26;49.21
9439;BME280;5176;42.622;25.386;2023-03-29T01:08:31;97323.19;;;3.18;48.93
9439;BME280;5176;42.622;25.386;2023-03-29T01:11:05;97343.72;;;3.24;48.91
9439;BME280;5176;42.622;25.386;2023-03-29T01:13:39;97336.72;;;3.26;48.46
9439;BME280;5176;42.622;25.386;2023-03-29T01:16:10;97340.16;;;3.26;48.00
9439;BME280;5176;42.622;25.386;2023-03-29T01:18:41;97347.22;;;3.23;48.30
9439;BME280;5176;42.622;25.386;2023-03-29T01:21:19;97336.78;;;3.24;48.14
9439;BME280;5176;42.622;25.386;2023-03-29T01:24:11;97338.69;;;3.19;48.01
9439;BME280;5176;42.622;25.386;2023-03-29T01:26:52;97319.22;;;3.08;48.13
9439;BME280;5176;42.622;25.386;2023-03-29T01:29:28;97342.81;;;3.25;48.45
9439;BME280;5176;42.622;25.386;2023-03-29T01:32:03;97341.31;;;3.18;48.20
9439;BME280;5176;42.622;25.386;2023-03-29T01:34:40;97337.09;;;3.15;48.34
9439;BME280;5176;42.622;25.386;2023-03-29T01:37:15;97351.03;;;3.11;48.44
9439;BME280;5176;42.622;25.386;2023-03-29T01:39:45;97355.31;;;3.12;48.13
9439;BME280;5176;42.622;25.386;2023-03-29T01:42:25;97341.63;;;3.09;48.15
9439;BME280;5176;42.622;25.386;2023-03-29T01:45:07;97336.84;;;2.96;47.88
9439;BME280;5176;42.622;25.386;2023-03-29T01:47:44;97331.75;;;2.93;46.30
9439;BME280;5176;42.622;25.386;2023-03-29T01:50:17;97345.53;;;2.94;46.84
9439;BME280;5176;42.622;25.386;2023-03-29T01:52:51;97348.13;;;2.94;47.21
9439;BME280;5176;42.622;25.386;2023-03-29T01:55:23;97359.19;;;2.99;46.94
9439;BME280;5176;42.622;25.386;2023-03-29T01:57:55;97359.97;;;3.03;46.54
9439;BME280;5176;42.622;25.386;2023-03-29T02:00:29;97364.25;;;3.04;46.66
9439;BME280;5176;42.622;25.386;2023-03-29T02:03:03;97360.03;;;3.01;46.89
9439;BME280;5176;42.622;25.386;2023-03-29T02:05:34;97355.63;;;3.03;47.07
9439;BME280;5176;42.622;25.386;2023-03-29T02:08:07;97356.47;;;3.04;47.25
9439;BME280;5176;42.622;25.386;2023-03-29T02:10:37;97342.09;;;2.93;47.58
9439;BME280;5176;42.622;25.386;2023-03-29T02:13:06;97360.28;;;2.92;47.10
9439;BME280;5176;42.622;25.386;2023-03-29T02:15:36;97350.13;;;2.86;46.67
9439;BME280;5176;42.622;25.386;2023-03-29T02:18:05;97354.41;;;2.87;46.64
9439;BME280;5176;42.622;25.386;2023-03-29T02:20:36;97358.72;;;2.86;46.54
9439;BME280;5176;42.622;25.386;2023-03-29T02:23:11;97352.16;;;2.76;46.69
9439;BME280;5176;42.622;25.386;2023-03-29T02:25:42;97355.47;;;2.81;46.53
9439;BME280;5176;42.622;25.386;2023-03-29T02:28:13;97357.34;;;2.76;46.78
9439;BME280;5176;42.622;25.386;2023-03-29T02:30:50;97366.75;;;2.79;46.39
9439;BME280;5176;42.622;25.386;2023-03-29T02:33:25;97360.72;;;2.78;45.64
9439;BME280;5176;42.622;25.386;2023-03-29T02:35:59;97363.22;;;2.81;45.54
9439;BME280;5176;42.622;25.386;2023-03-29T02:38:30;97354.75;;;2.76;44.99
9439;BME280;5176;42.622;25.386;2023-03-29T02:41:00;97362.56;;;2.75;45.61
9439;BME280;5176;42.622;25.386;2023-03-29T02:43:30;97369.63;;;2.69;44.74
9439;BME280;5176;42.622;25.386;2023-03-29T02:46:03;97374.63;;;2.74;45.33
9439;BME280;5176;42.622;25.386;2023-03-29T02:48:34;97370.59;;;2.65;44.99
9439;BME280;5176;42.622;25.386;2023-03-29T02:51:10;97381.97;;;2.61;45.50
9439;BME280;5176;42.622;25.386;2023-03-29T02:53:42;97369.00;;;2.61;45.55
9439;BME280;5176;42.622;25.386;2023-03-29T02:56:13;97376.06;;;2.56;45.34
9439;BME280;5176;42.622;25.386;2023-03-29T02:58:41;97363.97;;;2.57;45.81
9439;BME280;5176;42.622;25.386;2023-03-29T03:01:12;97374.50;;;2.51;45.49
9439;BME280;5176;42.622;25.386;2023-03-29T03:03:42;97366.06;;;2.44;45.78
9439;BME280;5176;42.622;25.386;2023-03-29T03:06:11;97368.75;;;2.41;45.21
9439;BME280;5176;42.622;25.386;2023-03-29T03:08:39;97382.53;;;2.41;45.16
9439;BME280;5176;42.622;25.386;2023-03-29T03:11:09;97380.69;;;2.45;45.19
9439;BME280;5176;42.622;25.386;2023-03-29T03:13:38;97399.75;;;2.42;45.25
9439;BME280;5176;42.622;25.386;2023-03-29T03:16:08;97408.38;;;2.43;45.79
9439;BME280;5176;42.622;25.386;2023-03-29T03:18:38;97411.78;;;2.43;45.51
9439;BME280;5176;42.622;25.386;2023-03-29T03:21:06;97403.31;;;2.38;45.77
9439;BME280;5176;42.622;25.386;2023-03-29T03:23:35;97414.44;;;2.42;45.76
9439;BME280;5176;42.622;25.386;2023-03-29T03:26:05;97411.03;;;2.40;46.21
9439;BME280;5176;42.622;25.386;2023-03-29T03:28:34;97402.41;;;2.39;45.50
9439;BME280;5176;42.622;25.386;2023-03-29T03:31:04;97427.38;;;2.42;45.86
9439;BME280;5176;42.622;25.386;2023-03-29T03:33:32;97384.66;;;2.27;46.17
9439;BME280;5176;42.622;25.386;2023-03-29T03:36:04;97428.28;;;2.39;46.35
9439;BME280;5176;42.622;25.386;2023-03-29T03:38:36;97439.47;;;2.41;46.09
9439;BME280;5176;42.622;25.386;2023-03-29T03:41:06;97437.63;;;2.45;46.26
9439;BME280;5176;42.622;25.386;2023-03-29T03:43:35;97447.97;;;2.45;47.05
9439;BME280;5176;42.622;25.386;2023-03-29T03:46:04;97445.44;;;2.43;46.82
9439;BME280;5176;42.622;25.386;2023-03-29T03:48:34;97461.06;;;2.39;47.33
9439;BME280;5176;42.622;25.386;2023-03-29T03:51:05;97455.94;;;2.37;46.77
9439;BME280;5176;42.622;25.386;2023-03-29T03:53:35;97459.38;;;2.38;47.28
9439;BME280;5176;42.622;25.386;2023-03-29T03:56:05;97459.25;;;2.42;46.93
9439;BME280;5176;42.622;25.386;2023-03-29T03:58:35;97455.84;;;2.42;47.14
9439;BME280;5176;42.622;25.386;2023-03-29T04:01:04;97463.31;;;2.51;46.76
9439;BME280;5176;42.622;25.386;2023-03-29T04:03:34;97462.69;;;2.43;46.37
9439;BME280;5176;42.622;25.386;2023-03-29T04:06:05;97464.44;;;2.42;46.95
9439;BME280;5176;42.622;25.386;2023-03-29T04:08:33;97465.28;;;2.43;46.55
9439;BME280;5176;42.622;25.386;2023-03-29T04:11:03;97474.84;;;2.41;46.99
9439;BME280;5176;42.622;25.386;2023-03-29T04:13:33;97469.72;;;2.38;46.22
9439;BME280;5176;42.622;25.386;2023-03-29T04:16:02;97462.06;;;2.35;46.23
9439;BME280;5176;42.622;25.386;2023-03-29T04:18:31;97470.78;;;2.31;47.14
9439;BME280;5176;42.622;25.386;2023-03-29T04:20:59;97457.19;;;2.24;47.80
9439;BME280;5176;42.622;25.386;2023-03-29T04:23:30;97456.28;;;2.25;47.70
9439;BME280;5176;42.622;25.386;2023-03-29T04:25:59;97467.63;;;2.21;48.14
9439;BME280;5176;42.622;25.386;2023-03-29T04:28:27;97460.59;;;2.25;47.67
9439;BME280;5176;42.622;25.386;2023-03-29T04:30:56;97456.22;;;2.28;47.70
9439;BME280;5176;42.622;25.386;2023-03-29T04:33:25;97465.78;;;2.25;47.58
9439;BME280;5176;42.622;25.386;2023-03-29T04:35:55;97465.88;;;2.22;47.59
9439;BME280;5176;42.622;25.386;2023-03-29T04:38:24;97459.75;;;2.24;48.11
9439;BME280;5176;42.622;25.386;2023-03-29T04:40:55;97463.25;;;2.23;48.58
9439;BME280;5176;42.622;25.386;2023-03-29T04:43:24;97477.78;;;2.27;48.59
9439;BME280;5176;42.622;25.386;2023-03-29T04:45:53;97472.78;;;2.21;48.33
9439;BME280;5176;42.622;25.386;2023-03-29T04:48:22;97476.25;;;2.20;48.42
9439;BME280;5176;42.622;25.386;2023-03-29T04:50:52;97483.84;;;2.26;48.16
9439;BME280;5176;42.622;25.386;2023-03-29T04:53:21;97463.88;;;2.31;48.54
9439;BME280;5176;42.622;25.386;2023-03-29T04:55:51;97484.66;;;2.28;48.80
9439;BME280;5176;42.622;25.386;2023-03-29T04:58:22;97456.91;;;2.33;48.19
9439;BME280;5176;42.622;25.386;2023-03-29T05:00:54;97482.63;;;2.39;47.86
9439;BME280;5176;42.622;25.386;2023-03-29T05:03:23;97472.28;;;2.39;48.37
9439;BME280;5176;42.622;25.386;2023-03-29T05:05:52;97476.38;;;2.46;47.64
9439;BME280;5176;42.622;25.386;2023-03-29T05:08:21;97484.88;;;2.52;47.28
9439;BME280;5176;42.622;25.386;2023-03-29T05:10:50;97483.75;;;2.62;47.61
9439;BME280;5176;42.622;25.386;2023-03-29T05:13:19;97469.75;;;2.67;47.58
9439;BME280;5176;42.622;25.386;2023-03-29T05:15:50;97473.88;;;2.75;47.76
9439;BME280;5176;42.622;25.386;2023-03-29T05:18:19;97458.91;;;2.84;47.72
9439;BME280;5176;42.622;25.386;2023-03-29T05:20:50;97465.59;;;2.91;47.49
9439;BME280;5176;42.622;25.386;2023-03-29T05:23:19;97470.47;;;3.02;47.27
9439;BME280;5176;42.622;25.386;2023-03-29T05:25:48;97471.28;;;3.04;46.94
9439;BME280;5176;42.622;25.386;2023-03-29T05:28:16;97483.28;;;3.07;46.33
9439;BME280;5176;42.622;25.386;2023-03-29T05:30:45;97480.66;;;3.08;46.62
9439;BME280;5176;42.622;25.386;2023-03-29T05:33:17;97487.16;;;3.21;46.36
9439;BME280;5176;42.622;25.386;2023-03-29T05:35:45;97483.66;;;3.22;46.25
9439;BME280;5176;42.622;25.386;2023-03-29T05:38:14;97477.34;;;3.31;46.32
9439;BME280;5176;42.622;25.386;2023-03-29T05:40:43;97502.31;;;3.34;45.75
9439;BME280;5176;42.622;25.386;2023-03-29T05:43:12;97499.53;;;3.40;45.48
9439;BME280;5176;42.622;25.386;2023-03-29T05:45:41;97504.53;;;3.46;45.21
9439;BME280;5176;42.622;25.386;2023-03-29T05:48:09;97523.97;;;3.59;45.00
9439;BME280;5176;42.622;25.386;2023-03-29T05:50:40;97523.47;;;3.74;44.73
9439;BME280;5176;42.622;25.386;2023-03-29T05:53:13;97529.63;;;3.72;44.55
9439;BME280;5176;42.622;25.386;2023-03-29T05:55:42;97529.25;;;3.84;44.64
9439;BME280;5176;42.622;25.386;2023-03-29T05:58:13;97538.38;;;3.96;44.23
9439;BME280;5176;42.622;25.386;2023-03-29T06:00:42;97525.16;;;4.03;43.79
9439;BME280;5176;42.622;25.386;2023-03-29T06:03:13;97530.94;;;4.12;43.60
9439;BME280;5176;42.622;25.386;2023-03-29T06:05:47;97521.38;;;4.12;43.49
9439;BME280;5176;42.622;25.386;2023-03-29T06:08:15;97541.88;;;4.20;43.13
9439;BME280;5176;42.622;25.386;2023-03-29T06:10:44;97534.09;;;4.20;42.79
9439;BME280;5176;42.622;25.386;2023-03-29T06:13:13;97543.03;;;4.37;42.41
9439;BME280;5176;42.622;25.386;2023-03-29T06:15:42;97537.91;;;4.36;41.64
9439;BME280;5176;42.622;25.386;2023-03-29T06:18:11;97540.94;;;4.47;41.89
9439;BME280;5176;42.622;25.386;2023-03-29T06:20:39;97537.09;;;4.59;41.58
9439;BME280;5176;42.622;25.386;2023-03-29T06:23:10;97550.69;;;4.65;41.38
9439;BME280;5176;42.622;25.386;2023-03-29T06:25:39;97557.22;;;4.77;41.04
9439;BME280;5176;42.622;25.386;2023-03-29T06:28:08;97548.09;;;4.65;40.07
9439;BME280;5176;42.622;25.386;2023-03-29T06:30:36;97550.84;;;4.86;40.47
9439;BME280;5176;42.622;25.386;2023-03-29T06:33:05;97551.19;;;4.77;39.81
9439;BME280;5176;42.622;25.386;2023-03-29T06:35:35;97560.28;;;4.88;40.04
9439;BME280;5176;42.622;25.386;2023-03-29T06:38:03;97567.38;;;5.07;39.48
9439;BME280;5176;42.622;25.386;2023-03-29T06:40:35;97569.75;;;5.13;39.11
9439;BME280;5176;42.622;25.386;2023-03-29T06:43:05;97572.88;;;5.23;38.62
9439;BME280;5176;42.622;25.386;2023-03-29T06:45:35;97569.81;;;5.35;38.18
9439;BME280;5176;42.622;25.386;2023-03-29T06:48:06;97590.16;;;5.47;37.82
9439;BME280;5176;42.622;25.386;2023-03-29T06:50:36;97582.97;;;5.54;38.46
9439;BME280;5176;42.622;25.386;2023-03-29T06:53:04;97581.81;;;5.61;38.17
9439;BME280;5176;42.622;25.386;2023-03-29T06:55:32;97588.84;;;5.81;37.40
9439;BME280;5176;42.622;25.386;2023-03-29T06:58:04;97588.50;;;5.90;37.04
9439;BME280;5176;42.622;25.386;2023-03-29T07:00:34;97568.84;;;5.83;37.15
9439;BME280;5176;42.622;25.386;2023-03-29T07:03:06;97593.88;;;6.09;35.93
9439;BME280;5176;42.622;25.386;2023-03-29T07:05:36;97599.53;;;6.18;36.17
9439;BME280;5176;42.622;25.386;2023-03-29T07:08:08;97608.72;;;6.27;34.69
9439;BME280;5176;42.622;25.386;2023-03-29T07:10:42;97605.66;;;6.17;35.30
9439;BME280;5176;42.622;25.386;2023-03-29T07:13:14;97613.84;;;6.50;36.27
9439;BME280;5176;42.622;25.386;2023-03-29T07:15:43;97615.69;;;6.69;35.46
9439;BME280;5176;42.622;25.386;2023-03-29T07:18:12;97615.69;;;6.89;35.59
9439;BME280;5176;42.622;25.386;2023-03-29T07:20:41;97625.22;;;6.89;34.51
9439;BME280;5176;42.622;25.386;2023-03-29T07:23:10;97621.59;;;6.93;34.18
9439;BME280;5176;42.622;25.386;2023-03-29T07:25:39;97600.63;;;6.96;33.59
9439;BME280;5176;42.622;25.386;2023-03-29T07:28:08;97616.03;;;7.00;33.77
9439;BME280;5176;42.622;25.386;2023-03-29T07:30:38;97607.16;;;7.25;33.93
9439;BME280;5176;42.622;25.386;2023-03-29T07:33:09;97617.25;;;7.32;33.02
9439;BME280;5176;42.622;25.386;2023-03-29T07:35:38;97614.63;;;7.32;33.23
9439;BME280;5176;42.622;25.386;2023-03-29T07:38:09;97616.50;;;7.10;33.15
9439;BME280;5176;42.622;25.386;2023-03-29T07:40:38;97611.81;;;7.18;33.43
9439;BME280;5176;42.622;25.386;2023-03-29T07:43:07;97609.25;;;7.56;33.09
9439;BME280;5176;42.622;25.386;2023-03-29T07:45:38;97608.72;;;7.67;32.81
9439;BME280;5176;42.622;25.386;2023-03-29T07:48:08;97611.69;;;7.59;32.46
9439;BME280;5176;42.622;25.386;2023-03-29T07:50:36;97616.34;;;7.71;31.90
9439;BME280;5176;42.622;25.386;2023-03-29T07:53:06;97622.28;;;7.56;32.42
9439;BME280;5176;42.622;25.386;2023-03-29T07:55:34;97611.97;;;7.53;32.51
9439;BME280;5176;42.622;25.386;2023-03-29T07:58:03;97630.03;;;7.76;32.94
9439;BME280;5176;42.622;25.386;2023-03-29T08:00:32;97622.78;;;7.83;32.21
9439;BME280;5176;42.622;25.386;2023-03-29T08:03:04;97615.25;;;7.94;31.71
9439;BME280;5176;42.622;25.386;2023-03-29T08:05:33;97633.50;;;8.32;31.91
9439;BME280;5176;42.622;25.386;2023-03-29T08:08:02;97630.47;;;8.58;31.36
9439;BME280;5176;42.622;25.386;2023-03-29T08:10:30;97633.78;;;8.44;30.74
9439;BME280;5176;42.622;25.386;2023-03-29T08:13:03;97633.72;;;8.63;31.11
9439;BME280;5176;42.622;25.386;2023-03-29T08:15:33;97643.38;;;8.61;30.08
9439;BME280;5176;42.622;25.386;2023-03-29T08:18:05;97643.28;;;8.45;29.45
9439;BME280;5176;42.622;25.386;2023-03-29T08:20:34;97636.59;;;8.40;29.87
9439;BME280;5176;42.622;25.386;2023-03-29T08:23:03;97642.34;;;8.29;30.68
9439;BME280;5176;42.622;25.386;2023-03-29T08:25:32;97645.28;;;8.40;31.09
9439;BME280;5176;42.622;25.386;2023-03-29T08:28:01;97649.19;;;8.49;30.98
9439;BME280;5176;42.622;25.386;2023-03-29T08:30:29;97636.94;;;8.51;31.03
9439;BME280;5176;42.622;25.386;2023-03-29T08:32:58;97632.31;;;8.91;31.57
9439;BME280;5176;42.622;25.386;2023-03-29T08:35:29;97634.25;;;9.05;31.02
9439;BME280;5176;42.622;25.386;2023-03-29T08:37:57;97627.44;;;9.18;30.90
9439;BME280;5176;42.622;25.386;2023-03-29T08:40:28;97646.06;;;8.94;30.39
9439;BME280;5176;42.622;25.386;2023-03-29T08:43:10;97647.41;;;8.86;31.06
9439;BME280;5176;42.622;25.386;2023-03-29T08:45:48;97631.34;;;8.76;31.65
9439;BME280;5176;42.622;25.386;2023-03-29T08:48:25;97636.31;;;8.98;31.52
9439;BME280;5176;42.622;25.386;2023-03-29T08:50:59;97640.69;;;8.80;31.75
9439;BME280;5176;42.622;25.386;2023-03-29T08:53:33;97632.63;;;8.67;31.85
9439;BME280;5176;42.622;25.386;2023-03-29T08:56:07;97641.16;;;8.88;31.63
9439;BME280;5176;42.622;25.386;2023-03-29T08:58:39;97648.56;;;8.97;31.59
9439;BME280;5176;42.622;25.386;2023-03-29T09:01:09;97634.28;;;9.20;31.93
9439;BME280;5176;42.622;25.386;2023-03-29T09:03:40;97627.56;;;9.32;32.26
9439;BME280;5176;42.622;25.386;2023-03-29T09:06:15;97646.63;;;9.67;31.97
9439;BME280;5176;42.622;25.386;2023-03-29T09:08:48;97633.72;;;9.31;31.71
9439;BME280;5176;42.622;25.386;2023-03-29T09:11:33;97622.94;;;9.37;31.62
9439;BME280;5176;42.622;25.386;2023-03-29T09:14:22;97625.28;;;9.42;31.35
9439;BME280;5176;42.622;25.386;2023-03-29T09:16:59;97618.25;;;9.75;31.43
9439;BME280;5176;42.622;25.386;2023-03-29T09:19:36;97626.97;;;9.92;31.42
9439;BME280;5176;42.622;25.386;2023-03-29T09:22:16;97604.97;;;9.63;30.26
9439;BME280;5176;42.622;25.386;2023-03-29T09:24:57;97625.06;;;8.96;30.33
9439;BME280;5176;42.622;25.386;2023-03-29T09:27:34;97620.88;;;8.76;31.07
9439;BME280;5176;42.622;25.386;2023-03-29T09:30:12;97626.00;;;8.60;30.74
9439;BME280;5176;42.622;25.386;2023-03-29T09:32:47;97627.84;;;8.93;31.58
9439;BME280;5176;42.622;25.386;2023-03-29T09:35:21;97624.22;;;8.95;31.33
9439;BME280;5176;42.622;25.386;2023-03-29T09:37:53;97621.19;;;8.70;30.94
9439;BME280;5176;42.622;25.386;2023-03-29T09:40:25;97620.53;;;8.82;32.32
9439;BME280;5176;42.622;25.386;2023-03-29T09:42:56;97633.44;;;9.02;31.76
9439;BME280;5176;42.622;25.386;2023-03-29T09:45:25;97636.75;;;9.06;31.91
9439;BME280;5176;42.622;25.386;2023-03-29T09:47:56;97630.06;;;9.18;31.76
9439;BME280;5176;42.622;25.386;2023-03-29T09:50:31;97624.50;;;9.24;31.66
9439;BME280;5176;42.622;25.386;2023-03-29T09:53:04;97601.72;;;8.93;31.47
9439;BME280;5176;42.622;25.386;2023-03-29T09:55:33;97624.09;;;8.46;32.13
9439;BME280;5176;42.622;25.386;2023-03-29T09:58:11;97637.44;;;8.40;32.12
9439;BME280;5176;42.622;25.386;2023-03-29T10:00:41;97629.03;;;8.70;31.37
9439;BME280;5176;42.622;25.386;2023-03-29T10:03:17;97626.94;;;8.59;31.16
9439;BME280;5176;42.622;25.386;2023-03-29T10:05:46;97630.72;;;8.35;31.64
9439;BME280;5176;42.622;25.386;2023-03-29T10:08:24;97634.72;;;8.06;32.25
9439;BME280;5176;42.622;25.386;2023-03-29T10:10:55;97622.53;;;7.87;33.03
9439;BME280;5176;42.622;25.386;2023-03-29T10:13:27;97634.44;;;8.12;32.80
9439;BME280;5176;42.622;25.386;2023-03-29T10:16:01;97610.72;;;8.53;33.55
9439;BME280;5176;42.622;25.386;2023-03-29T10:18:30;97610.56;;;8.56;31.68
9439;BME280;5176;42.622;25.386;2023-03-29T10:21:01;97608.34;;;8.65;30.96
9439;BME280;5176;42.622;25.386;2023-03-29T10:23:33;97612.94;;;8.95;31.09
9439;BME280;5176;42.622;25.386;2023-03-29T10:26:04;97600.88;;;9.25;31.57
9439;BME280;5176;42.622;25.386;2023-03-29T10:28:35;97605.56;;;9.36;30.83
9439;BME280;5176;42.622;25.386;2023-03-29T10:31:06;97618.00;;;8.98;30.85
9439;BME280;5176;42.622;25.386;2023-03-29T10:33:35;97627.25;;;8.70;30.78
9439;BME280;5176;42.622;25.386;2023-03-29T10:36:06;97619.00;;;8.95;31.21
9439;BME280;5176;42.622;25.386;2023-03-29T10:38:37;97618.47;;;8.89;30.56
9439;BME280;5176;42.622;25.386;2023-03-29T10:41:09;97609.38;;;8.96;30.59
9439;BME280;5176;42.622;25.386;2023-03-29T10:43:42;97603.78;;;8.86;30.40
9439;BME280;5176;42.622;25.386;2023-03-29T10:46:19;97605.88;;;8.80;31.42
9439;BME280;5176;42.622;25.386;2023-03-29T10:48:49;97613.13;;;9.08;30.85
9439;BME280;5176;42.622;25.386;2023-03-29T10:51:19;97600.38;;;9.19;30.26
9439;BME280;5176;42.622;25.386;2023-03-29T10:53:49;97609.22;;;9.16;29.55
9439;BME280;5176;42.622;25.386;2023-03-29T10:56:30;97606.00;;;9.44;29.70
9439;BME280;5176;42.622;25.386;2023-03-29T10:59:17;97599.84;;;9.61;29.16
9439;BME280;5176;42.622;25.386;2023-03-29T11:04:56;97592.00;;;9.77;28.40
9439;BME280;5176;42.622;25.386;2023-03-29T11:07:33;97585.16;;;9.74;28.19
9439;BME280;5176;42.622;25.386;2023-03-29T11:10:26;97591.22;;;9.59;27.65
9439;BME280;5176;42.622;25.386;2023-03-29T11:13:03;97588.09;;;9.68;28.50
9439;BME280;5176;42.622;25.386;2023-03-29T11:15:44;97576.38;;;9.60;27.95
9439;BME280;5176;42.622;25.386;2023-03-29T11:18:34;97571.13;;;9.75;27.83
9439;BME280;5176;42.622;25.386;2023-03-29T11:21:13;97585.41;;;10.17;29.22
9439;BME280;5176;42.622;25.386;2023-03-29T11:23:51;97557.69;;;9.81;29.36
9439;BME280;5176;42.622;25.386;2023-03-29T11:26:28;97559.03;;;9.89;29.29
9439;BME280;5176;42.622;25.386;2023-03-29T11:29:02;97555.03;;;9.83;29.14
9439;BME280;5176;42.622;25.386;2023-03-29T11:31:38;97555.94;;;9.82;29.07
9439;BME280;5176;42.622;25.386;2023-03-29T11:34:20;97554.50;;;9.61;29.25
9439;BME280;5176;42.622;25.386;2023-03-29T11:37:00;97559.66;;;9.46;28.73
9439;BME280;5176;42.622;25.386;2023-03-29T11:39:37;97545.88;;;9.43;29.20
9439;BME280;5176;42.622;25.386;2023-03-29T11:42:16;97558.56;;;9.50;28.89
9439;BME280;5176;42.622;25.386;2023-03-29T11:44:51;97549.41;;;9.42;27.95
9439;BME280;5176;42.622;25.386;2023-03-29T11:47:23;97553.16;;;9.38;28.22
9439;BME280;5176;42.622;25.386;2023-03-29T11:49:56;97554.84;;;9.54;28.74
9439;BME280;5176;42.622;25.386;2023-03-29T11:52:29;97538.28;;;9.54;28.86
9439;BME280;5176;42.622;25.386;2023-03-29T11:55:04;97549.78;;;9.67;28.98
9439;BME280;5176;42.622;25.386;2023-03-29T11:57:41;97524.09;;;9.74;29.11
9439;BME280;5176;42.622;25.386;2023-03-29T12:00:15;97551.47;;;9.84;29.02
9439;BME280;5176;42.622;25.386;2023-03-29T12:02:51;97533.97;;;9.69;29.49
9439;BME280;5176;42.622;25.386;2023-03-29T12:05:25;97566.22;;;9.53;29.40
9439;BME280;5176;42.622;25.386;2023-03-29T12:07:58;97562.69;;;9.54;28.96
9439;BME280;5176;42.622;25.386;2023-03-29T12:10:33;97548.16;;;9.80;29.49
9439;BME280;5176;42.622;25.386;2023-03-29T12:13:06;97542.00;;;9.81;29.76
9439;BME280;5176;42.622;25.386;2023-03-29T12:15:42;97554.50;;;9.92;29.11
9439;BME280;5176;42.622;25.386;2023-03-29T12:18:16;97543.00;;;9.95;29.48
9439;BME280;5176;42.622;25.386;2023-03-29T12:20:51;97543.19;;;9.76;28.25
9439;BME280;5176;42.622;25.386;2023-03-29T12:23:23;97538.66;;;9.64;28.55
9439;BME280;5176;42.622;25.386;2023-03-29T12:25:58;97537.84;;;9.62;29.34
9439;BME280;5176;42.622;25.386;2023-03-29T12:28:51;97538.19;;;9.55;29.34
9439;BME280;5176;42.622;25.386;2023-03-29T12:31:27;97555.66;;;9.23;29.23
9439;BME280;5176;42.622;25.386;2023-03-29T12:37:25;97540.66;;;8.94;30.03
9439;BME280;5176;42.622;25.386;2023-03-29T12:40:09;97547.09;;;8.71;30.08
9439;BME280;5176;42.622;25.386;2023-03-29T12:42:45;97529.44;;;8.92;30.07
9439;BME280;5176;42.622;25.386;2023-03-29T12:45:19;97533.84;;;9.07;29.46
9439;BME280;5176;42.622;25.386;2023-03-29T12:47:49;97539.38;;;9.34;30.14
9439;BME280;5176;42.622;25.386;2023-03-29T12:50:24;97534.56;;;9.42;29.20
9439;BME280;5176;42.622;25.386;2023-03-29T12:53:04;97517.06;;;9.11;28.64
9439;BME280;5176;42.622;25.386;2023-03-29T12:55:46;97541.53;;;9.10;29.22
9439;BME280;5176;42.622;25.386;2023-03-29T12:58:39;97528.94;;;9.01;28.86
9439;BME280;5176;42.622;25.386;2023-03-29T13:01:24;97530.06;;;9.28;28.42
9439;BME280;5176;42.622;25.386;2023-03-29T13:04:10;97526.97;;;9.53;28.18
9439;BME280;5176;42.622;25.386;2023-03-29T13:06:58;97534.34;;;10.08;27.82
9439;BME280;5176;42.622;25.386;2023-03-29T13:09:32;97538.13;;;10.34;26.92
9439;BME280;5176;42.622;25.386;2023-03-29T13:12:06;97533.66;;;10.21;26.88
9439;BME280;5176;42.622;25.386;2023-03-29T13:14:39;97524.66;;;10.10;26.79
9439;BME280;5176;42.622;25.386;2023-03-29T13:17:26;97520.25;;;9.95;26.79
9439;BME280;5176;42.622;25.386;2023-03-29T13:20:12;97544.81;;;10.08;26.30
9439;BME280;5176;42.622;25.386;2023-03-29T13:22:52;97541.31;;;9.94;25.25
9439;BME280;5176;42.622;25.386;2023-03-29T13:25:36;97534.13;;;9.81;26.14
9439;BME280;5176;42.622;25.386;2023-03-29T13:28:15;97527.19;;;9.96;26.33
9439;BME280;5176;42.622;25.386;2023-03-29T13:30:53;97535.31;;;9.92;26.67
9439;BME280;5176;42.622;25.386;2023-03-29T13:33:43;97529.16;;;9.93;26.74
9439;BME280;5176;42.622;25.386;2023-03-29T13:36:19;97537.66;;;9.96;26.83
9439;BME280;5176;42.622;25.386;2023-03-29T13:38:53;97535.75;;;9.84;27.06
9439;BME280;5176;42.622;25.386;2023-03-29T13:41:26;97526.78;;;9.88;27.01
9439;BME280;5176;42.622;25.386;2023-03-29T13:43:58;97539.28;;;9.99;27.13
9439;BME280;5176;42.622;25.386;2023-03-29T13:46:38;97534.34;;;10.08;27.14
9439;BME280;5176;42.622;25.386;2023-03-29T13:49:17;97523.22;;;10.05;26.70
9439;BME280;5176;42.622;25.386;2023-03-29T13:52:00;97531.56;;;10.27;26.40
9439;BME280;5176;42.622;25.386;2023-03-29T13:54:33;97535.59;;;10.33;26.38
9439;BME280;5176;42.622;25.386;2023-03-29T13:57:10;97524.38;;;10.31;26.38